sensor_id;sensor_type;location;lat;lon;timestamp;temperature;humidity
14670;DHT22;7423;48.722;9.350;2023-03-17T00:01:10;9.30;99.90
14670;DHT22;7423;48.722;9.350;2023-03-17T00:03:39;9.30;99.90
14670;DHT22;7423;48.722;9.350;2023-03-17T00:06:20;9.30;99.90
14670;DHT22;7423;48.722;9.350;2023-03-17T00:08:53;9.30;99.90
14670;DHT22;7423;48.722;9.350;2023-03-17T00:11:20;9.30;99.90
14670;DHT22;7423;48.722;9.350;2023-03-17T00:13:47;9.30;99.90
14670;DHT22;7423;48.722;9.350;2023-03-17T00:18:44;9.20;99.90
14670;DHT22;7423;48.722;9.350;2023-03-17T00:21:13;9.20;99.90
14670;DHT22;7423;48.722;9.350;2023-03-17T00:23:48;9.20;99.90
14670;DHT22;7423;48.722;9.350;2023-03-17T00:26:17;9.20;99.90
14670;DHT22;7423;48.722;9.350;2023-03-17T00:28:45;9.10;99.90
14670;DHT22;7423;48.722;9.350;2023-03-17T00:31:17;9.20;99.90
14670;DHT22;7423;48.722;9.350;2023-03-17T00:33:48;9.20;99.90
14670;DHT22;7423;48.722;9.350;2023-03-17T00:36:23;9.10;99.90
14670;DHT22;7423;48.722;9.350;2023-03-17T00:38:53;9.10;99.90
14670;DHT22;7423;48.722;9.350;2023-03-17T00:41:21;9.00;99.90
14670;DHT22;7423;48.722;9.350;2023-03-17T00:43:48;9.00;99.90
14670;DHT22;7423;48.722;9.350;2023-03-17T00:46:23;9.00;99.90
14670;DHT22;7423;48.722;9.350;2023-03-17T00:48:53;9.00;99.90
14670;DHT22;7423;48.722;9.350;2023-03-17T00:51:21;9.00;99.90
14670;DHT22;7423;48.722;9.350;2023-03-17T00:53:48;9.00;99.90
14670;DHT22;7423;48.722;9.350;2023-03-17T00:56:18;9.00;99.90
14670;DHT22;7423;48.722;9.350;2023-03-17T00:58:46;9.10;99.90
14670;DHT22;7423;48.722;9.350;2023-03-17T01:01:14;9.10;99.90
14670;DHT22;7423;48.722;9.350;2023-03-17T01:03:41;9.10;99.90
14670;DHT22;7423;48.722;9.350;2023-03-17T01:06:11;9.10;99.90
14670;DHT22;7423;48.722;9.350;2023-03-17T01:08:39;9.20;99.90
14670;DHT22;7423;48.722;9.350;2023-03-17T01:11:14;9.20;99.90
14670;DHT22;7423;48.722;9.350;2023-03-17T01:13:43;9.20;99.90
14670;DHT22;7423;48.722;9.350;2023-03-17T01:16:11;9.20;99.90
14670;DHT22;7423;48.722;9.350;2023-03-17T01:18:39;9.30;99.90
14670;DHT22;7423;48.722;9.350;2023-03-17T01:21:06;9.30;99.90
14670;DHT22;7423;48.722;9.350;2023-03-17T01:23:33;9.40;99.90
14670;DHT22;7423;48.722;9.350;2023-03-17T01:26:00;9.30;99.90
14670;DHT22;7423;48.722;9.350;2023-03-17T01:28:27;9.30;99.90
14670;DHT22;7423;48.722;9.350;2023-03-17T01:30:54;9.30;99.90
14670;DHT22;7423;48.722;9.350;2023-03-17T01:33:22;9.30;99.90
14670;DHT22;7423;48.722;9.350;2023-03-17T01:35:49;9.30;99.90
14670;DHT22;7423;48.722;9.350;2023-03-17T01:38:17;9.30;99.90
14670;DHT22;7423;48.722;9.350;2023-03-17T01:40:47;9.40;99.90
14670;DHT22;7423;48.722;9.350;2023-03-17T01:43:25;9.40;99.90
14670;DHT22;7423;48.722;9.350;2023-03-17T01:46:21;9.40;99.90
14670;DHT22;7423;48.722;9.350;2023-03-17T01:54:53;9.40;99.90
14670;DHT22;7423;48.722;9.350;2023-03-17T01:57:48;9.40;99.90
14670;DHT22;7423;48.722;9.350;2023-03-17T02:00:19;9.30;99.90
14670;DHT22;7423;48.722;9.350;2023-03-17T02:02:50;9.30;99.90
14670;DHT22;7423;48.722;9.350;2023-03-17T02:05:21;9.30;99.90
14670;DHT22;7423;48.722;9.350;2023-03-17T02:07:50;9.20;99.90
14670;DHT22;7423;48.722;9.350;2023-03-17T02:10:19;9.20;99.90
14670;DHT22;7423;48.722;9.350;2023-03-17T02:12:51;9.20;99.90
14670;DHT22;7423;48.722;9.350;2023-03-17T02:15:22;9.20;99.90
14670;DHT22;7423;48.722;9.350;2023-03-17T02:17:49;9.20;99.90
14670;DHT22;7423;48.722;9.350;2023-03-17T02:22:44;9.60;99.90
14670;DHT22;7423;48.722;9.350;2023-03-17T02:25:15;9.10;99.90
14670;DHT22;7423;48.722;9.350;2023-03-17T02:27:45;9.10;99.90
14670;DHT22;7423;48.722;9.350;2023-03-17T02:30:18;9.10;99.90
14670;DHT22;7423;48.722;9.350;2023-03-17T02:32:46;9.20;99.90
14670;DHT22;7423;48.722;9.350;2023-03-17T02:35:13;9.20;99.90
14670;DHT22;7423;48.722;9.350;2023-03-17T02:37:41;9.20;99.90
14670;DHT22;7423;48.722;9.350;2023-03-17T02:40:09;9.20;99.90
14670;DHT22;7423;48.722;9.350;2023-03-17T02:42:39;9.20;99.90
14670;DHT22;7423;48.722;9.350;2023-03-17T02:45:08;9.20;99.90
14670;DHT22;7423;48.722;9.350;2023-03-17T02:47:40;9.10;99.90
14670;DHT22;7423;48.722;9.350;2023-03-17T02:50:09;9.10;99.90
14670;DHT22;7423;48.722;9.350;2023-03-17T02:52:43;9.10;99.90
14670;DHT22;7423;48.722;9.350;2023-03-17T02:55:10;9.10;99.90
14670;DHT22;7423;48.722;9.350;2023-03-17T02:57:37;9.10;99.90
14670;DHT22;7423;48.722;9.350;2023-03-17T03:00:04;9.00;99.90
14670;DHT22;7423;48.722;9.350;2023-03-17T03:02:31;9.00;99.90
14670;DHT22;7423;48.722;9.350;2023-03-17T03:04:58;9.00;99.90
14670;DHT22;7423;48.722;9.350;2023-03-17T03:07:25;9.00;99.90
14670;DHT22;7423;48.722;9.350;2023-03-17T03:09:52;9.00;99.90
14670;DHT22;7423;48.722;9.350;2023-03-17T03:12:19;8.90;99.90
14670;DHT22;7423;48.722;9.350;2023-03-17T03:14:46;8.90;99.90
14670;DHT22;7423;48.722;9.350;2023-03-17T03:17:14;8.90;99.90
14670;DHT22;7423;48.722;9.350;2023-03-17T03:19:41;8.90;99.90
14670;DHT22;7423;48.722;9.350;2023-03-17T03:22:08;8.90;99.90
14670;DHT22;7423;48.722;9.350;2023-03-17T03:24:36;8.90;99.90
14670;DHT22;7423;48.722;9.350;2023-03-17T03:27:03;8.80;99.90
14670;DHT22;7423;48.722;9.350;2023-03-17T03:29:29;8.80;99.90
14670;DHT22;7423;48.722;9.350;2023-03-17T03:31:56;8.80;99.90
14670;DHT22;7423;48.722;9.350;2023-03-17T03:34:23;8.80;99.90
14670;DHT22;7423;48.722;9.350;2023-03-17T03:36:50;8.80;99.90
14670;DHT22;7423;48.722;9.350;2023-03-17T03:39:17;8.80;99.90
14670;DHT22;7423;48.722;9.350;2023-03-17T03:41:44;8.70;99.90
14670;DHT22;7423;48.722;9.350;2023-03-17T03:44:10;8.80;99.90
14670;DHT22;7423;48.722;9.350;2023-03-17T03:46:37;8.80;99.90
14670;DHT22;7423;48.722;9.350;2023-03-17T03:49:04;8.80;99.90
14670;DHT22;7423;48.722;9.350;2023-03-17T03:51:32;8.80;99.90
14670;DHT22;7423;48.722;9.350;2023-03-17T03:53:58;8.70;99.90
14670;DHT22;7423;48.722;9.350;2023-03-17T03:56:26;8.70;99.90
14670;DHT22;7423;48.722;9.350;2023-03-17T03:58:53;8.70;99.90
14670;DHT22;7423;48.722;9.350;2023-03-17T04:01:20;8.60;99.90
14670;DHT22;7423;48.722;9.350;2023-03-17T04:03:47;8.60;99.90
14670;DHT22;7423;48.722;9.350;2023-03-17T04:06:14;8.50;99.90
14670;DHT22;7423;48.722;9.350;2023-03-17T04:08:41;8.50;99.90
14670;DHT22;7423;48.722;9.350;2023-03-17T04:11:08;8.50;99.90
14670;DHT22;7423;48.722;9.350;2023-03-17T04:13:35;8.40;99.90
14670;DHT22;7423;48.722;9.350;2023-03-17T04:16:02;8.40;99.90
14670;DHT22;7423;48.722;9.350;2023-03-17T04:18:29;8.40;99.90
14670;DHT22;7423;48.722;9.350;2023-03-17T04:20:57;8.40;99.90
14670;DHT22;7423;48.722;9.350;2023-03-17T04:23:24;8.40;99.90
14670;DHT22;7423;48.722;9.350;2023-03-17T04:25:51;8.40;99.90
14670;DHT22;7423;48.722;9.350;2023-03-17T04:28:19;8.30;99.90
14670;DHT22;7423;48.722;9.350;2023-03-17T04:30:46;8.30;99.90
14670;DHT22;7423;48.722;9.350;2023-03-17T04:33:13;8.30;99.90
14670;DHT22;7423;48.722;9.350;2023-03-17T04:35:40;8.20;99.90
14670;DHT22;7423;48.722;9.350;2023-03-17T04:38:09;8.10;99.90
14670;DHT22;7423;48.722;9.350;2023-03-17T04:40:37;8.10;99.90
14670;DHT22;7423;48.722;9.350;2023-03-17T04:43:04;8.10;99.90
14670;DHT22;7423;48.722;9.350;2023-03-17T04:45:31;8.00;99.90
14670;DHT22;7423;48.722;9.350;2023-03-17T04:47:59;8.00;99.90
14670;DHT22;7423;48.722;9.350;2023-03-17T04:50:26;7.90;99.90
14670;DHT22;7423;48.722;9.350;2023-03-17T04:52:53;7.90;99.90
14670;DHT22;7423;48.722;9.350;2023-03-17T04:55:20;7.80;99.90
14670;DHT22;7423;48.722;9.350;2023-03-17T04:57:47;7.80;99.90
14670;DHT22;7423;48.722;9.350;2023-03-17T05:00:14;7.80;99.90
14670;DHT22;7423;48.722;9.350;2023-03-17T05:02:41;7.70;99.90
14670;DHT22;7423;48.722;9.350;2023-03-17T05:05:08;7.70;99.90
14670;DHT22;7423;48.722;9.350;2023-03-17T05:07:35;7.60;99.90
14670;DHT22;7423;48.722;9.350;2023-03-17T05:10:03;7.60;99.90
14670;DHT22;7423;48.722;9.350;2023-03-17T05:12:31;7.60;99.90
14670;DHT22;7423;48.722;9.350;2023-03-17T05:14:57;7.50;99.90
14670;DHT22;7423;48.722;9.350;2023-03-17T05:17:24;7.50;99.90
14670;DHT22;7423;48.722;9.350;2023-03-17T05:19:51;7.50;99.90
14670;DHT22;7423;48.722;9.350;2023-03-17T05:22:18;7.40;99.90
14670;DHT22;7423;48.722;9.350;2023-03-17T05:24:45;7.40;99.90
14670;DHT22;7423;48.722;9.350;2023-03-17T05:27:13;7.40;99.90
14670;DHT22;7423;48.722;9.350;2023-03-17T05:29:40;7.30;99.90
14670;DHT22;7423;48.722;9.350;2023-03-17T05:32:06;7.30;99.90
14670;DHT22;7423;48.722;9.350;2023-03-17T05:34:33;7.20;99.90
14670;DHT22;7423;48.722;9.350;2023-03-17T05:37:00;7.20;99.90
14670;DHT22;7423;48.722;9.350;2023-03-17T05:39:27;7.30;99.90
14670;DHT22;7423;48.722;9.350;2023-03-17T05:41:54;7.30;99.90
14670;DHT22;7423;48.722;9.350;2023-03-17T05:44:22;7.20;99.90
14670;DHT22;7423;48.722;9.350;2023-03-17T05:46:49;7.20;99.90
14670;DHT22;7423;48.722;9.350;2023-03-17T05:49:16;7.20;99.90
14670;DHT22;7423;48.722;9.350;2023-03-17T05:51:44;7.20;99.90
14670;DHT22;7423;48.722;9.350;2023-03-17T05:54:11;7.10;99.90
14670;DHT22;7423;48.722;9.350;2023-03-17T05:56:37;7.10;99.90
14670;DHT22;7423;48.722;9.350;2023-03-17T05:59:04;7.00;99.90
14670;DHT22;7423;48.722;9.350;2023-03-17T06:01:31;7.00;99.90
14670;DHT22;7423;48.722;9.350;2023-03-17T06:03:58;7.00;99.90
14670;DHT22;7423;48.722;9.350;2023-03-17T06:06:27;7.00;99.90
14670;DHT22;7423;48.722;9.350;2023-03-17T06:08:54;7.90;99.90
14670;DHT22;7423;48.722;9.350;2023-03-17T06:11:21;7.10;99.90
14670;DHT22;7423;48.722;9.350;2023-03-17T06:13:48;7.20;99.90
14670;DHT22;7423;48.722;9.350;2023-03-17T06:16:15;7.20;99.90
14670;DHT22;7423;48.722;9.350;2023-03-17T06:18:42;7.10;99.90
14670;DHT22;7423;48.722;9.350;2023-03-17T06:21:10;7.10;99.90
14670;DHT22;7423;48.722;9.350;2023-03-17T06:23:37;7.00;99.90
14670;DHT22;7423;48.722;9.350;2023-03-17T06:26:05;7.00;99.90
14670;DHT22;7423;48.722;9.350;2023-03-17T06:28:32;7.10;99.90
14670;DHT22;7423;48.722;9.350;2023-03-17T06:30:59;7.00;99.90
14670;DHT22;7423;48.722;9.350;2023-03-17T06:33:26;7.00;99.90
14670;DHT22;7423;48.722;9.350;2023-03-17T06:35:53;7.00;99.90
14670;DHT22;7423;48.722;9.350;2023-03-17T06:38:20;7.00;99.90
14670;DHT22;7423;48.722;9.350;2023-03-17T06:40:47;7.00;99.90
14670;DHT22;7423;48.722;9.350;2023-03-17T06:43:14;7.10;99.90
14670;DHT22;7423;48.722;9.350;2023-03-17T06:45:41;7.20;99.90
14670;DHT22;7423;48.722;9.350;2023-03-17T06:48:08;7.30;99.90
14670;DHT22;7423;48.722;9.350;2023-03-17T06:50:34;7.30;99.90
14670;DHT22;7423;48.722;9.350;2023-03-17T06:53:02;7.40;99.90
14670;DHT22;7423;48.722;9.350;2023-03-17T06:55:30;7.40;99.90
14670;DHT22;7423;48.722;9.350;2023-03-17T06:57:57;7.40;99.90
14670;DHT22;7423;48.722;9.350;2023-03-17T07:00:25;7.50;99.90
14670;DHT22;7423;48.722;9.350;2023-03-17T07:02:53;7.50;99.90
14670;DHT22;7423;48.722;9.350;2023-03-17T07:05:20;7.60;99.90
14670;DHT22;7423;48.722;9.350;2023-03-17T07:07:47;7.70;99.90
14670;DHT22;7423;48.722;9.350;2023-03-17T07:10:14;7.70;99.90
14670;DHT22;7423;48.722;9.350;2023-03-17T07:12:43;7.80;99.90
14670;DHT22;7423;48.722;9.350;2023-03-17T07:15:10;7.80;99.90
14670;DHT22;7423;48.722;9.350;2023-03-17T07:17:40;7.80;99.90
14670;DHT22;7423;48.722;9.350;2023-03-17T07:20:08;7.90;99.90
14670;DHT22;7423;48.722;9.350;2023-03-17T07:22:36;8.00;99.90
14670;DHT22;7423;48.722;9.350;2023-03-17T07:25:03;8.10;99.90
14670;DHT22;7423;48.722;9.350;2023-03-17T07:27:30;8.20;99.90
14670;DHT22;7423;48.722;9.350;2023-03-17T07:29:57;8.20;99.90
14670;DHT22;7423;48.722;9.350;2023-03-17T07:32:27;8.30;99.90
14670;DHT22;7423;48.722;9.350;2023-03-17T07:34:55;8.40;99.90
14670;DHT22;7423;48.722;9.350;2023-03-17T07:37:22;8.50;99.90
14670;DHT22;7423;48.722;9.350;2023-03-17T07:39:50;8.60;99.90
14670;DHT22;7423;48.722;9.350;2023-03-17T07:42:17;8.60;99.90
14670;DHT22;7423;48.722;9.350;2023-03-17T07:44:44;8.70;99.90
14670;DHT22;7423;48.722;9.350;2023-03-17T07:47:11;8.70;99.90
14670;DHT22;7423;48.722;9.350;2023-03-17T07:49:39;8.80;99.90
14670;DHT22;7423;48.722;9.350;2023-03-17T07:52:09;8.90;99.90
14670;DHT22;7423;48.722;9.350;2023-03-17T07:54:36;8.90;99.90
14670;DHT22;7423;48.722;9.350;2023-03-17T07:57:04;9.00;99.90
14670;DHT22;7423;48.722;9.350;2023-03-17T07:59:32;9.00;99.90
14670;DHT22;7423;48.722;9.350;2023-03-17T08:01:59;9.00;99.90
14670;DHT22;7423;48.722;9.350;2023-03-17T08:04:27;9.10;99.90
14670;DHT22;7423;48.722;9.350;2023-03-17T08:06:54;9.10;99.90
14670;DHT22;7423;48.722;9.350;2023-03-17T08:09:21;9.20;99.90
14670;DHT22;7423;48.722;9.350;2023-03-17T08:11:48;9.20;99.90
14670;DHT22;7423;48.722;9.350;2023-03-17T08:14:16;9.30;99.90
14670;DHT22;7423;48.722;9.350;2023-03-17T08:16:42;9.40;99.90
14670;DHT22;7423;48.722;9.350;2023-03-17T08:19:09;9.40;99.90
14670;DHT22;7423;48.722;9.350;2023-03-17T08:21:36;9.50;99.90
14670;DHT22;7423;48.722;9.350;2023-03-17T08:24:03;9.60;99.90
14670;DHT22;7423;48.722;9.350;2023-03-17T08:26:31;9.60;99.90
14670;DHT22;7423;48.722;9.350;2023-03-17T08:28:58;9.70;99.90
14670;DHT22;7423;48.722;9.350;2023-03-17T08:31:24;9.80;99.90
14670;DHT22;7423;48.722;9.350;2023-03-17T08:33:53;9.90;99.90
14670;DHT22;7423;48.722;9.350;2023-03-17T08:36:22;9.80;99.90
14670;DHT22;7423;48.722;9.350;2023-03-17T08:38:49;9.90;99.90
14670;DHT22;7423;48.722;9.350;2023-03-17T08:41:20;10.00;99.90
14670;DHT22;7423;48.722;9.350;2023-03-17T08:43:49;10.00;99.90
14670;DHT22;7423;48.722;9.350;2023-03-17T08:46:23;10.10;99.90
14670;DHT22;7423;48.722;9.350;2023-03-17T08:48:53;10.20;99.90
14670;DHT22;7423;48.722;9.350;2023-03-17T08:51:23;10.20;99.90
14670;DHT22;7423;48.722;9.350;2023-03-17T08:53:53;10.20;99.90
14670;DHT22;7423;48.722;9.350;2023-03-17T08:56:21;10.20;99.90
14670;DHT22;7423;48.722;9.350;2023-03-17T08:58:49;10.30;99.90
14670;DHT22;7423;48.722;9.350;2023-03-17T09:01:17;10.30;99.90
14670;DHT22;7423;48.722;9.350;2023-03-17T09:03:47;10.30;99.90
14670;DHT22;7423;48.722;9.350;2023-03-17T09:06:15;10.40;99.90
14670;DHT22;7423;48.722;9.350;2023-03-17T09:08:42;10.40;99.90
14670;DHT22;7423;48.722;9.350;2023-03-17T09:11:14;10.40;99.90
14670;DHT22;7423;48.722;9.350;2023-03-17T09:13:44;10.40;99.90
14670;DHT22;7423;48.722;9.350;2023-03-17T09:16:12;10.50;99.90
14670;DHT22;7423;48.722;9.350;2023-03-17T09:18:40;10.50;99.90
14670;DHT22;7423;48.722;9.350;2023-03-17T09:21:08;10.60;99.90
14670;DHT22;7423;48.722;9.350;2023-03-17T09:23:37;10.60;99.90
14670;DHT22;7423;48.722;9.350;2023-03-17T09:26:04;10.60;99.90
14670;DHT22;7423;48.722;9.350;2023-03-17T09:28:31;10.70;99.90
14670;DHT22;7423;48.722;9.350;2023-03-17T09:31:03;10.80;99.90
14670;DHT22;7423;48.722;9.350;2023-03-17T09:33:31;10.90;99.90
14670;DHT22;7423;48.722;9.350;2023-03-17T09:35:58;10.80;99.90
14670;DHT22;7423;48.722;9.350;2023-03-17T09:38:25;10.90;99.90
14670;DHT22;7423;48.722;9.350;2023-03-17T09:41:02;10.90;99.90
14670;DHT22;7423;48.722;9.350;2023-03-17T09:43:44;11.00;99.90
14670;DHT22;7423;48.722;9.350;2023-03-17T09:46:46;11.10;99.90
14670;DHT22;7423;48.722;9.350;2023-03-17T09:49:18;11.10;99.90
14670;DHT22;7423;48.722;9.350;2023-03-17T09:51:48;11.20;99.90
14670;DHT22;7423;48.722;9.350;2023-03-17T09:57:09;11.30;99.90
14670;DHT22;7423;48.722;9.350;2023-03-17T09:59:42;11.40;99.90
14670;DHT22;7423;48.722;9.350;2023-03-17T10:02:27;11.50;99.90
14670;DHT22;7423;48.722;9.350;2023-03-17T10:04:56;11.60;99.90
14670;DHT22;7423;48.722;9.350;2023-03-17T10:07:41;11.70;99.90
14670;DHT22;7423;48.722;9.350;2023-03-17T10:16:12;11.90;99.90
14670;DHT22;7423;48.722;9.350;2023-03-17T10:18:57;12.00;99.90
14670;DHT22;7423;48.722;9.350;2023-03-17T10:21:45;12.10;99.90
14670;DHT22;7423;48.722;9.350;2023-03-17T10:24:15;12.20;99.90
14670;DHT22;7423;48.722;9.350;2023-03-17T10:26:45;12.30;99.90
14670;DHT22;7423;48.722;9.350;2023-03-17T10:29:17;12.40;99.90
14670;DHT22;7423;48.722;9.350;2023-03-17T10:31:51;12.50;99.90
14670;DHT22;7423;48.722;9.350;2023-03-17T10:34:23;12.50;99.90
14670;DHT22;7423;48.722;9.350;2023-03-17T10:37:03;12.70;99.90
14670;DHT22;7423;48.722;9.350;2023-03-17T10:39:41;12.80;99.90
14670;DHT22;7423;48.722;9.350;2023-03-17T10:42:22;12.90;99.90
14670;DHT22;7423;48.722;9.350;2023-03-17T10:45:27;12.90;99.90
14670;DHT22;7423;48.722;9.350;2023-03-17T10:47:57;13.10;99.90
14670;DHT22;7423;48.722;9.350;2023-03-17T10:50:31;13.20;99.90
14670;DHT22;7423;48.722;9.350;2023-03-17T10:53:06;13.30;99.90
14670;DHT22;7423;48.722;9.350;2023-03-17T10:58:14;13.40;99.90
14670;DHT22;7423;48.722;9.350;2023-03-17T11:01:16;13.50;99.90
14670;DHT22;7423;48.722;9.350;2023-03-17T11:03:53;13.60;99.90
14670;DHT22;7423;48.722;9.350;2023-03-17T11:06:37;13.70;99.90
14670;DHT22;7423;48.722;9.350;2023-03-17T11:09:10;13.70;99.90
14670;DHT22;7423;48.722;9.350;2023-03-17T11:11:48;13.80;99.90
14670;DHT22;7423;48.722;9.350;2023-03-17T11:14:17;13.90;99.90
14670;DHT22;7423;48.722;9.350;2023-03-17T11:16:52;13.90;99.90
14670;DHT22;7423;48.722;9.350;2023-03-17T11:19:32;14.00;99.90
14670;DHT22;7423;48.722;9.350;2023-03-17T11:22:14;14.10;99.90
14670;DHT22;7423;48.722;9.350;2023-03-17T11:24:49;14.10;99.90
14670;DHT22;7423;48.722;9.350;2023-03-17T11:27:32;14.20;99.90
14670;DHT22;7423;48.722;9.350;2023-03-17T11:35:43;14.50;99.90
14670;DHT22;7423;48.722;9.350;2023-03-17T11:38:29;14.60;99.90
14670;DHT22;7423;48.722;9.350;2023-03-17T11:46:59;14.90;99.90
14670;DHT22;7423;48.722;9.350;2023-03-17T11:49:38;15.00;99.90
14670;DHT22;7423;48.722;9.350;2023-03-17T11:52:27;15.20;99.90
14670;DHT22;7423;48.722;9.350;2023-03-17T11:55:24;15.30;99.90
14670;DHT22;7423;48.722;9.350;2023-03-17T11:58:01;15.30;99.90
14670;DHT22;7423;48.722;9.350;2023-03-17T12:00:33;15.40;99.90
14670;DHT22;7423;48.722;9.350;2023-03-17T12:11:54;15.60;99.30
14670;DHT22;7423;48.722;9.350;2023-03-17T12:17:07;15.70;99.00
14670;DHT22;7423;48.722;9.350;2023-03-17T12:20:06;15.80;97.80
14670;DHT22;7423;48.722;9.350;2023-03-17T12:22:43;16.00;97.10
14670;DHT22;7423;48.722;9.350;2023-03-17T12:25:22;16.20;96.90
14670;DHT22;7423;48.722;9.350;2023-03-17T12:28:17;16.30;96.40
14670;DHT22;7423;48.722;9.350;2023-03-17T12:30:52;16.30;96.10
14670;DHT22;7423;48.722;9.350;2023-03-17T12:36:23;16.50;95.30
14670;DHT22;7423;48.722;9.350;2023-03-17T12:39:01;16.50;95.50
14670;DHT22;7423;48.722;9.350;2023-03-17T12:42:08;16.60;95.50
14670;DHT22;7423;48.722;9.350;2023-03-17T12:50:59;16.70;95.10
14670;DHT22;7423;48.722;9.350;2023-03-17T12:53:39;16.70;94.80
14670;DHT22;7423;48.722;9.350;2023-03-17T12:56:33;16.70;94.40
14670;DHT22;7423;48.722;9.350;2023-03-17T12:59:08;16.90;93.70
14670;DHT22;7423;48.722;9.350;2023-03-17T13:02:35;17.00;92.80
14670;DHT22;7423;48.722;9.350;2023-03-17T13:04:57;17.10;92.20
14670;DHT22;7423;48.722;9.350;2023-03-17T13:07:47;17.20;92.50
14670;DHT22;7423;48.722;9.350;2023-03-17T13:10:46;17.20;92.30
14670;DHT22;7423;48.722;9.350;2023-03-17T13:38:29;17.60;88.00
14670;DHT22;7423;48.722;9.350;2023-03-17T13:41:32;17.70;86.30
14670;DHT22;7423;48.722;9.350;2023-03-17T13:44:18;17.80;84.40
14670;DHT22;7423;48.722;9.350;2023-03-17T13:46:52;18.00;82.40
14670;DHT22;7423;48.722;9.350;2023-03-17T13:49:21;18.00;83.10
14670;DHT22;7423;48.722;9.350;2023-03-17T13:54:46;18.00;81.10
14670;DHT22;7423;48.722;9.350;2023-03-17T13:59:58;18.10;82.00
14670;DHT22;7423;48.722;9.350;2023-03-17T14:02:32;18.00;83.50
14670;DHT22;7423;48.722;9.350;2023-03-17T14:05:05;18.10;85.00
14670;DHT22;7423;48.722;9.350;2023-03-17T14:10:26;18.10;85.50
14670;DHT22;7423;48.722;9.350;2023-03-17T14:15:59;18.30;84.70
14670;DHT22;7423;48.722;9.350;2023-03-17T14:18:32;18.30;81.30
14670;DHT22;7423;48.722;9.350;2023-03-17T14:21:03;18.40;83.60
14670;DHT22;7423;48.722;9.350;2023-03-17T14:23:36;18.40;85.40
14670;DHT22;7423;48.722;9.350;2023-03-17T14:26:03;18.50;85.50
14670;DHT22;7423;48.722;9.350;2023-03-17T14:28:33;18.40;85.60
14670;DHT22;7423;48.722;9.350;2023-03-17T14:31:05;18.50;85.60
14670;DHT22;7423;48.722;9.350;2023-03-17T14:33:37;18.50;85.00
14670;DHT22;7423;48.722;9.350;2023-03-17T14:36:08;18.60;82.90
14670;DHT22;7423;48.722;9.350;2023-03-17T14:38:52;18.60;82.40
14670;DHT22;7423;48.722;9.350;2023-03-17T14:41:24;18.70;84.50
14670;DHT22;7423;48.722;9.350;2023-03-17T14:43:56;18.80;82.90
14670;DHT22;7423;48.722;9.350;2023-03-17T14:46:31;18.80;84.50
14670;DHT22;7423;48.722;9.350;2023-03-17T14:49:23;18.70;84.50
14670;DHT22;7423;48.722;9.350;2023-03-17T14:51:50;18.80;84.00
14670;DHT22;7423;48.722;9.350;2023-03-17T14:54:30;18.80;84.90
14670;DHT22;7423;48.722;9.350;2023-03-17T14:57:05;18.80;83.80
14670;DHT22;7423;48.722;9.350;2023-03-17T14:59:36;18.90;84.60
14670;DHT22;7423;48.722;9.350;2023-03-17T15:04:55;18.90;86.80
14670;DHT22;7423;48.722;9.350;2023-03-17T15:07:29;18.90;87.60
14670;DHT22;7423;48.722;9.350;2023-03-17T15:09:59;18.90;88.70
14670;DHT22;7423;48.722;9.350;2023-03-17T15:12:30;18.90;89.50
14670;DHT22;7423;48.722;9.350;2023-03-17T15:15:02;18.90;90.20
14670;DHT22;7423;48.722;9.350;2023-03-17T15:17:33;18.80;90.50
14670;DHT22;7423;48.722;9.350;2023-03-17T15:20:06;18.80;90.90
14670;DHT22;7423;48.722;9.350;2023-03-17T15:22:46;18.80;91.20
14670;DHT22;7423;48.722;9.350;2023-03-17T15:25:32;18.70;91.30
14670;DHT22;7423;48.722;9.350;2023-03-17T15:27:59;18.80;91.60
14670;DHT22;7423;48.722;9.350;2023-03-17T15:30:26;18.80;91.70
14670;DHT22;7423;48.722;9.350;2023-03-17T15:33:18;18.80;91.90
14670;DHT22;7423;48.722;9.350;2023-03-17T15:35:48;18.90;92.00
14670;DHT22;7423;48.722;9.350;2023-03-17T15:38:16;18.90;92.20
14670;DHT22;7423;48.722;9.350;2023-03-17T15:40:43;18.90;92.10
14670;DHT22;7423;48.722;9.350;2023-03-17T15:43:14;18.90;92.20
14670;DHT22;7423;48.722;9.350;2023-03-17T15:45:42;18.80;92.30
14670;DHT22;7423;48.722;9.350;2023-03-17T15:48:21;18.80;92.50
14670;DHT22;7423;48.722;9.350;2023-03-17T15:50:50;18.70;92.70
14670;DHT22;7423;48.722;9.350;2023-03-17T15:53:18;18.70;92.90
14670;DHT22;7423;48.722;9.350;2023-03-17T15:55:48;18.80;92.70
14670;DHT22;7423;48.722;9.350;2023-03-17T15:58:15;18.80;92.90
14670;DHT22;7423;48.722;9.350;2023-03-17T16:00:44;18.70;93.00
14670;DHT22;7423;48.722;9.350;2023-03-17T16:03:42;18.70;93.20
14670;DHT22;7423;48.722;9.350;2023-03-17T16:06:19;18.70;93.40
14670;DHT22;7423;48.722;9.350;2023-03-17T16:08:48;18.70;93.50
14670;DHT22;7423;48.722;9.350;2023-03-17T16:11:18;18.60;93.70
14670;DHT22;7423;48.722;9.350;2023-03-17T16:13:54;18.60;94.00
14670;DHT22;7423;48.722;9.350;2023-03-17T16:16:37;18.60;94.20
14670;DHT22;7423;48.722;9.350;2023-03-17T16:19:17;18.60;94.40
14670;DHT22;7423;48.722;9.350;2023-03-17T16:21:46;18.60;94.60
14670;DHT22;7423;48.722;9.350;2023-03-17T16:24:21;18.50;94.80
14670;DHT22;7423;48.722;9.350;2023-03-17T16:26:49;18.50;95.00
14670;DHT22;7423;48.722;9.350;2023-03-17T16:29:19;18.50;95.10
14670;DHT22;7423;48.722;9.350;2023-03-17T16:31:48;18.50;95.20
14670;DHT22;7423;48.722;9.350;2023-03-17T16:34:22;18.50;95.50
14670;DHT22;7423;48.722;9.350;2023-03-17T16:36:49;18.40;95.70
14670;DHT22;7423;48.722;9.350;2023-03-17T16:39:21;18.30;96.00
14670;DHT22;7423;48.722;9.350;2023-03-17T16:41:49;18.40;96.20
14670;DHT22;7423;48.722;9.350;2023-03-17T16:44:18;18.40;96.40
14670;DHT22;7423;48.722;9.350;2023-03-17T16:46:46;20.00;97.40
14670;DHT22;7423;48.722;9.350;2023-03-17T16:49:15;18.30;96.70
14670;DHT22;7423;48.722;9.350;2023-03-17T16:51:44;18.30;96.90
14670;DHT22;7423;48.722;9.350;2023-03-17T16:54:11;18.20;97.10
14670;DHT22;7423;48.722;9.350;2023-03-17T16:56:39;18.20;97.30
14670;DHT22;7423;48.722;9.350;2023-03-17T16:59:13;18.20;97.50
14670;DHT22;7423;48.722;9.350;2023-03-17T17:01:43;18.10;97.70
14670;DHT22;7423;48.722;9.350;2023-03-17T17:04:10;19.70;98.30
14670;DHT22;7423;48.722;9.350;2023-03-17T17:06:37;18.10;97.80
14670;DHT22;7423;48.722;9.350;2023-03-17T17:09:04;18.00;98.00
14670;DHT22;7423;48.722;9.350;2023-03-17T17:11:30;18.00;98.20
14670;DHT22;7423;48.722;9.350;2023-03-17T17:13:57;18.00;98.30
14670;DHT22;7423;48.722;9.350;2023-03-17T17:16:28;17.90;98.40
14670;DHT22;7423;48.722;9.350;2023-03-17T17:18:57;17.90;98.50
14670;DHT22;7423;48.722;9.350;2023-03-17T17:21:25;17.90;98.70
14670;DHT22;7423;48.722;9.350;2023-03-17T17:23:53;17.80;98.80
14670;DHT22;7423;48.722;9.350;2023-03-17T17:26:21;17.80;99.00
14670;DHT22;7423;48.722;9.350;2023-03-17T17:28:48;17.70;99.10
14670;DHT22;7423;48.722;9.350;2023-03-17T17:31:15;17.70;99.30
14670;DHT22;7423;48.722;9.350;2023-03-17T17:33:42;17.60;99.20
14670;DHT22;7423;48.722;9.350;2023-03-17T17:36:14;17.60;99.40
14670;DHT22;7423;48.722;9.350;2023-03-17T17:38:42;17.70;99.30
14670;DHT22;7423;48.722;9.350;2023-03-17T17:41:10;17.50;99.60
14670;DHT22;7423;48.722;9.350;2023-03-17T17:43:38;17.50;99.90
14670;DHT22;7423;48.722;9.350;2023-03-17T17:46:10;18.00;99.90
14670;DHT22;7423;48.722;9.350;2023-03-17T17:48:38;17.40;99.90
14670;DHT22;7423;48.722;9.350;2023-03-17T17:51:05;17.40;99.90
14670;DHT22;7423;48.722;9.350;2023-03-17T17:53:32;17.30;99.90